Time;durP1;ratioP1;P1;durP2;ratioP2;P2;SDS_P1;SDS_P2;PMS_P1;PMS_P2;Temp;Humidity;BMP_temperature;BMP_pressure;BME280_temperature;BME280_humidity;BME280_pressure;Samples;Min_cycle;Max_cycle;Signal;HPM_P1;HPM_P2
2021/11/10 00:00:21;;;;;;;0.50;0.50;;;;;;;;;;5031143;28;20637;-65
2021/11/10 00:02:47;;;;;;;0.50;0.50;;;;;;;;;;5032772;28;20657;-65
2021/11/10 00:05:14;;;;;;;0.50;0.50;;;;;;;;;;5033123;28;20181;-65
2021/11/10 00:07:40;;;;;;;0.50;0.50;;;;;;;;;;5034897;28;20691;-65
2021/11/10 00:10:07;;;;;;;0.50;0.50;;;;;;;;;;5034770;28;20203;-64
2021/11/10 00:12:33;;;;;;;0.50;0.50;;;;;;;;;;5034481;28;20230;-65
2021/11/10 00:14:59;;;;;;;0.60;0.60;;;;;;;;;;5034645;28;20177;-65
2021/11/10 00:17:25;;;;;;;0.50;0.50;;;;;;;;;;5033067;28;20200;-65
2021/11/10 00:19:51;;;;;;;0.60;0.60;;;;;;;;;;5034603;28;20482;-65
2021/11/10 00:22:17;;;;;;;0.60;0.60;;;;;;;;;;5034509;28;20180;-65
2021/11/10 00:24:43;;;;;;;0.50;0.50;;;;;;;;;;5034654;28;20181;-66
2021/11/10 00:27:09;;;;;;;0.50;0.50;;;;;;;;;;5033999;28;20436;-67
2021/11/10 00:29:35;;;;;;;0.50;0.50;;;;;;;;;;5034572;28;20405;-66
2021/11/10 00:32:01;;;;;;;0.50;0.50;;;;;;;;;;5034302;28;20399;-65
2021/11/10 00:34:27;;;;;;;0.43;0.43;;;;;;;;;;5034412;28;20887;-66
2021/11/10 00:36:53;;;;;;;0.50;0.50;;;;;;;;;;5034236;28;20446;-66
2021/11/10 00:39:19;;;;;;;0.50;0.50;;;;;;;;;;5033703;28;20680;-66
2021/11/10 00:41:45;;;;;;;0.50;0.50;;;;;;;;;;5033980;28;20234;-66
2021/11/10 00:44:11;;;;;;;0.50;0.50;;;;;;;;;;5034010;28;20248;-66
2021/11/10 00:46:37;;;;;;;0.50;0.50;;;;;;;;;;5032968;28;20176;-66
2021/11/10 00:49:03;;;;;;;0.60;0.60;;;;;;;;;;5033703;28;20432;-66
2021/11/10 00:51:30;;;;;;;0.50;0.50;;;;;;;;;;5033802;28;20593;-65
2021/11/10 00:53:56;;;;;;;0.50;0.50;;;;;;;;;;5032613;28;20776;-66
2021/11/10 00:56:22;;;;;;;0.50;0.50;;;;;;;;;;5034118;28;20178;-66
2021/11/10 00:58:48;;;;;;;0.50;0.50;;;;;;;;;;5033871;28;20251;-66
2021/11/10 01:01:15;;;;;;;0.50;0.50;;;;;;;;;;5033234;28;20200;-66
2021/11/10 01:03:41;;;;;;;0.50;0.50;;;;;;;;;;5033762;28;20413;-65
2021/11/10 01:06:07;;;;;;;0.47;0.47;;;;;;;;;;5033844;28;20176;-66
2021/11/10 01:08:32;;;;;;;0.50;0.50;;;;;;;;;;5032424;28;20295;-66
2021/11/10 01:10:59;;;;;;;0.50;0.50;;;;;;;;;;5033339;28;20653;-66
2021/11/10 01:13:26;;;;;;;0.50;0.50;;;;;;;;;;5033010;28;20412;-66
2021/11/10 01:15:53;;;;;;;0.50;0.50;;;;;;;;;;5032820;28;20176;-66
2021/11/10 01:18:19;;;;;;;0.50;0.50;;;;;;;;;;5032100;28;20697;-66
2021/11/10 01:20:45;;;;;;;0.50;0.50;;;;;;;;;;5051535;28;20185;-66
2021/11/10 01:23:11;;;;;;;0.50;0.50;;;;;;;;;;5052943;28;20539;-66
2021/11/10 01:25:38;;;;;;;0.50;0.50;;;;;;;;;;5053178;28;20254;-66
2021/11/10 01:28:05;;;;;;;0.50;0.50;;;;;;;;;;5053347;28;20867;-66
2021/11/10 01:30:31;;;;;;;0.50;0.50;;;;;;;;;;5052783;28;20552;-66
2021/11/10 01:32:57;;;;;;;0.50;0.50;;;;;;;;;;5053119;28;20210;-66
2021/11/10 01:35:23;;;;;;;0.53;0.53;;;;;;;;;;5052524;28;20195;-66
2021/11/10 01:37:49;;;;;;;0.60;0.60;;;;;;;;;;5052701;28;20818;-66
2021/11/10 01:40:16;;;;;;;0.60;0.60;;;;;;;;;;5052839;28;20202;-65
2021/11/10 01:42:43;;;;;;;0.50;0.50;;;;;;;;;;5051573;28;20219;-66
2021/11/10 01:45:10;;;;;;;0.50;0.50;;;;;;;;;;5052473;28;20544;-66
2021/11/10 01:47:36;;;;;;;0.60;0.60;;;;;;;;;;5052694;28;20677;-66
2021/11/10 01:50:03;;;;;;;0.60;0.60;;;;;;;;;;5052589;28;20191;-65
2021/11/10 01:52:29;;;;;;;0.50;0.50;;;;;;;;;;5052854;28;20175;-66
2021/11/10 01:54:55;;;;;;;0.50;0.50;;;;;;;;;;5052593;28;20181;-66
2021/11/10 01:57:21;;;;;;;0.60;0.60;;;;;;;;;;5052274;28;20426;-66
2021/11/10 01:59:48;;;;;;;0.50;0.50;;;;;;;;;;5052350;28;20213;-66
2021/11/10 02:02:25;;;;;;;0.60;0.60;;;;;;;;;;5052516;28;20556;-66
2021/11/10 02:04:51;;;;;;;0.70;0.70;;;;;;;;;;5052397;28;20172;-66
2021/11/10 02:07:18;;;;;;;0.50;0.50;;;;;;;;;;5050800;28;20204;-66
2021/11/10 02:09:44;;;;;;;0.50;0.50;;;;;;;;;;5052208;28;20200;-66
2021/11/10 02:12:11;;;;;;;0.50;0.50;;;;;;;;;;5052347;28;20176;-66
2021/11/10 02:14:38;;;;;;;0.50;0.50;;;;;;;;;;5051974;28;20182;-66
2021/11/10 02:17:04;;;;;;;0.50;0.50;;;;;;;;;;5052183;28;20180;-66
2021/11/10 02:19:30;;;;;;;0.50;0.50;;;;;;;;;;5051448;28;20238;-66
2021/11/10 02:21:58;;;;;;;0.50;0.50;;;;;;;;;;5052307;28;20662;-65
2021/11/10 02:24:26;;;;;;;0.50;0.50;;;;;;;;;;5050852;28;20204;-66
2021/11/10 02:26:52;;;;;;;0.40;0.40;;;;;;;;;;5051946;28;20169;-66
2021/11/10 02:29:22;;;;;;;0.60;0.60;;;;;;;;;;5051546;28;20229;-66
2021/11/10 02:31:49;;;;;;;0.50;0.50;;;;;;;;;;5051729;28;20261;-66
2021/11/10 02:34:15;;;;;;;0.50;0.50;;;;;;;;;;5050565;28;20229;-66
2021/11/10 02:36:41;;;;;;;0.50;0.50;;;;;;;;;;5052169;28;20706;-66
2021/11/10 02:39:09;;;;;;;0.50;0.50;;;;;;;;;;5051725;28;20463;-66
2021/11/10 02:41:37;;;;;;;0.50;0.50;;;;;;;;;;5051126;28;20674;-66
2021/11/10 02:44:05;;;;;;;0.50;0.50;;;;;;;;;;5052148;28;20184;-66
2021/11/10 02:46:31;;;;;;;0.50;0.50;;;;;;;;;;5051860;28;20171;-66
2021/11/10 02:48:57;;;;;;;0.50;0.50;;;;;;;;;;5049979;28;20192;-66
2021/11/10 02:51:24;;;;;;;0.50;0.50;;;;;;;;;;5051355;28;20193;-66
2021/11/10 02:53:50;;;;;;;0.50;0.50;;;;;;;;;;5051112;28;20453;-65
2021/11/10 02:56:16;;;;;;;0.50;0.50;;;;;;;;;;5051591;28;20687;-66
2021/11/10 02:58:42;;;;;;;0.60;0.60;;;;;;;;;;5051586;28;20465;-66
2021/11/10 03:01:08;;;;;;;0.50;0.50;;;;;;;;;;5050949;28;20427;-65
2021/11/10 03:03:34;;;;;;;0.50;0.50;;;;;;;;;;5051106;28;20229;-66
2021/11/10 03:06:00;;;;;;;0.50;0.50;;;;;;;;;;5051730;28;20169;-66
2021/11/10 03:08:26;;;;;;;0.50;0.50;;;;;;;;;;5051368;28;20196;-65
2021/11/10 03:10:53;;;;;;;0.50;0.50;;;;;;;;;;5051432;28;20249;-65
2021/11/10 03:13:18;;;;;;;0.50;0.50;;;;;;;;;;5051172;28;20430;-65
2021/11/10 03:15:46;;;;;;;0.50;0.50;;;;;;;;;;5051087;28;20176;-66
2021/11/10 03:18:12;;;;;;;0.50;0.50;;;;;;;;;;5051083;28;20450;-66
2021/11/10 03:20:38;;;;;;;0.60;0.60;;;;;;;;;;5051325;28;20176;-66
2021/11/10 03:23:05;;;;;;;0.50;0.50;;;;;;;;;;5051217;28;20180;-65
2021/11/10 03:25:31;;;;;;;0.50;0.50;;;;;;;;;;5050735;28;20163;-66
2021/11/10 03:27:57;;;;;;;0.50;0.50;;;;;;;;;;5051211;28;20263;-66
2021/11/10 03:30:24;;;;;;;0.50;0.50;;;;;;;;;;5049551;28;20188;-66
2021/11/10 03:32:51;;;;;;;0.50;0.50;;;;;;;;;;5051428;28;20204;-65
2021/11/10 03:35:17;;;;;;;0.43;0.43;;;;;;;;;;5051101;28;20285;-66
2021/11/10 03:37:43;;;;;;;0.50;0.50;;;;;;;;;;5050516;28;20220;-65
2021/11/10 03:40:09;;;;;;;0.50;0.50;;;;;;;;;;5055118;28;20211;-65
2021/11/10 03:42:35;;;;;;;0.40;0.40;;;;;;;;;;5055023;28;20763;-65
2021/11/10 03:45:01;;;;;;;0.50;0.50;;;;;;;;;;5055253;28;20173;-66
2021/11/10 03:47:27;;;;;;;0.50;0.50;;;;;;;;;;5054624;28;20442;-66
2021/11/10 03:49:53;;;;;;;0.50;0.50;;;;;;;;;;5054822;28;20502;-65
2021/11/10 03:52:19;;;;;;;0.50;0.50;;;;;;;;;;5033782;28;20423;-66
2021/11/10 03:54:47;;;;;;;0.50;0.50;;;;;;;;;;5035184;28;20823;-65
2021/11/10 03:57:13;;;;;;;0.52;0.52;;;;;;;;;;5053412;28;20187;-66
2021/11/10 03:59:39;;;;;;;0.50;0.50;;;;;;;;;;5054499;28;20206;-66
2021/11/10 04:02:06;;;;;;;0.50;0.50;;;;;;;;;;5053202;28;20428;-66
2021/11/10 04:04:32;;;;;;;0.50;0.50;;;;;;;;;;5054697;28;20735;-66
2021/11/10 04:06:58;;;;;;;0.50;0.50;;;;;;;;;;5054897;28;20203;-66
2021/11/10 04:09:24;;;;;;;0.50;0.50;;;;;;;;;;5054486;28;20415;-65
2021/11/10 04:11:50;;;;;;;0.47;0.47;;;;;;;;;;5054212;28;20176;-66
2021/11/10 04:14:16;;;;;;;0.50;0.50;;;;;;;;;;5058480;28;20475;-65
2021/11/10 04:16:42;;;;;;;0.50;0.50;;;;;;;;;;5053516;28;20438;-66
2021/11/10 04:19:08;;;;;;;0.50;0.50;;;;;;;;;;5054607;28;20227;-65
2021/11/10 04:21:34;;;;;;;0.50;0.50;;;;;;;;;;5053701;28;20450;-65
2021/11/10 04:24:00;;;;;;;0.50;0.50;;;;;;;;;;5054619;28;20196;-66
2021/11/10 04:26:30;;;;;;;0.50;0.50;;;;;;;;;;5053982;28;20518;-66
2021/11/10 04:28:57;;;;;;;0.55;0.55;;;;;;;;;;5054099;28;20195;-66
2021/11/10 04:31:23;;;;;;;0.50;0.50;;;;;;;;;;5054003;28;20200;-66
2021/11/10 04:33:50;;;;;;;0.50;0.50;;;;;;;;;;5053648;28;20194;-66
2021/11/10 04:36:17;;;;;;;0.50;0.50;;;;;;;;;;5054515;28;20172;-66
2021/11/10 04:38:44;;;;;;;0.50;0.50;;;;;;;;;;5053820;28;20211;-66
2021/11/10 04:41:11;;;;;;;0.50;0.50;;;;;;;;;;5054120;28;20179;-64
2021/11/10 04:43:37;;;;;;;0.50;0.50;;;;;;;;;;5053923;28;20546;-65
2021/11/10 04:46:09;;;;;;;0.50;0.50;;;;;;;;;;5053124;28;20176;-65
2021/11/10 04:48:39;;;;;;;0.60;0.60;;;;;;;;;;5053768;28;20199;-66
2021/11/10 04:51:06;;;;;;;0.55;0.55;;;;;;;;;;5053870;28;20164;-65
2021/11/10 04:53:34;;;;;;;0.50;0.50;;;;;;;;;;5053698;28;20570;-65
2021/11/10 04:56:00;;;;;;;0.60;0.60;;;;;;;;;;5053042;28;20639;-65
2021/11/10 04:58:26;;;;;;;0.60;0.60;;;;;;;;;;5053771;28;20208;-65
2021/11/10 05:00:52;;;;;;;0.60;0.60;;;;;;;;;;5053455;28;20399;-66
2021/11/10 05:03:17;;;;;;;0.50;0.50;;;;;;;;;;5053767;28;20782;-66
2021/11/10 05:05:44;;;;;;;0.50;0.50;;;;;;;;;;5053400;28;20403;-66
2021/11/10 05:08:10;;;;;;;0.60;0.60;;;;;;;;;;5053451;28;20426;-66
2021/11/10 05:10:36;;;;;;;0.50;0.50;;;;;;;;;;5053523;28;20222;-66
2021/11/10 05:13:02;;;;;;;0.50;0.50;;;;;;;;;;5052310;28;20418;-66
2021/11/10 05:15:28;;;;;;;0.50;0.50;;;;;;;;;;5053374;28;20449;-65
2021/11/10 05:17:54;;;;;;;0.40;0.40;;;;;;;;;;5052460;28;20442;-65
2021/11/10 05:20:19;;;;;;;0.50;0.50;;;;;;;;;;5053022;28;20989;-65
2021/11/10 05:22:45;;;;;;;0.50;0.50;;;;;;;;;;5053387;28;20976;-65
2021/11/10 05:25:12;;;;;;;0.50;0.50;;;;;;;;;;5040543;28;20456;-65
2021/11/10 05:27:38;;;;;;;0.50;0.50;;;;;;;;;;5033193;28;20566;-65
2021/11/10 05:30:05;;;;;;;0.50;0.50;;;;;;;;;;5033149;28;20679;-65
2021/11/10 05:32:31;;;;;;;0.50;0.50;;;;;;;;;;5032989;28;20648;-65
2021/11/10 05:34:58;;;;;;;0.53;0.53;;;;;;;;;;5046189;28;20190;-65
2021/11/10 05:37:26;;;;;;;0.50;0.50;;;;;;;;;;5053844;28;20483;-65
2021/11/10 05:39:52;;;;;;;0.50;0.50;;;;;;;;;;5052347;28;20199;-65
2021/11/10 05:42:18;;;;;;;0.50;0.50;;;;;;;;;;5052644;28;20200;-65
2021/11/10 05:44:44;;;;;;;0.50;0.50;;;;;;;;;;5051766;28;20169;-65
2021/11/10 05:47:10;;;;;;;0.40;0.40;;;;;;;;;;5052535;28;20429;-65
2021/11/10 05:49:36;;;;;;;0.50;0.50;;;;;;;;;;5052833;28;20410;-65
2021/11/10 05:52:03;;;;;;;0.50;0.50;;;;;;;;;;5052018;28;20422;-66
2021/11/10 05:54:29;;;;;;;0.50;0.50;;;;;;;;;;5052406;28;20618;-65
2021/11/10 05:56:55;;;;;;;0.50;0.50;;;;;;;;;;5052061;28;20675;-65
2021/11/10 05:59:21;;;;;;;0.50;0.50;;;;;;;;;;5051280;28;20212;-65
2021/11/10 06:01:47;;;;;;;0.50;0.50;;;;;;;;;;5050978;28;20191;-65
2021/11/10 06:04:13;;;;;;;0.60;0.60;;;;;;;;;;5052266;28;20509;-65
2021/11/10 06:06:39;;;;;;;0.60;0.60;;;;;;;;;;5052583;28;20830;-65
2021/11/10 06:09:06;;;;;;;0.50;0.50;;;;;;;;;;5052406;28;20192;-65
2021/11/10 06:11:32;;;;;;;0.50;0.50;;;;;;;;;;5052534;28;20172;-65
2021/11/10 06:13:58;;;;;;;0.57;0.57;;;;;;;;;;5050449;28;20176;-65
2021/11/10 06:16:24;;;;;;;0.50;0.50;;;;;;;;;;5052539;28;20259;-65
2021/11/10 06:18:50;;;;;;;0.50;0.50;;;;;;;;;;5051875;28;20739;-65
2021/11/10 06:21:16;;;;;;;0.50;0.50;;;;;;;;;;5052241;28;20475;-65
2021/11/10 06:23:42;;;;;;;0.50;0.50;;;;;;;;;;5051742;28;20429;-65
2021/11/10 06:26:09;;;;;;;0.60;0.60;;;;;;;;;;5051971;28;20175;-64
2021/11/10 06:28:35;;;;;;;0.50;0.50;;;;;;;;;;5051912;28;20253;-65
2021/11/10 06:31:01;;;;;;;0.50;0.50;;;;;;;;;;5051922;28;20294;-65
2021/11/10 06:33:27;;;;;;;0.60;0.60;;;;;;;;;;5051673;28;20399;-65
2021/11/10 06:35:53;;;;;;;0.50;0.50;;;;;;;;;;5050390;28;20676;-65
2021/11/10 06:38:19;;;;;;;0.60;0.60;;;;;;;;;;5051136;28;20464;-65
2021/11/10 06:40:45;;;;;;;0.60;0.60;;;;;;;;;;5051726;28;20411;-65
2021/11/10 06:43:10;;;;;;;0.60;0.60;;;;;;;;;;5051552;28;20430;-64
2021/11/10 06:45:36;;;;;;;0.50;0.50;;;;;;;;;;5051312;28;20186;-65
2021/11/10 06:48:03;;;;;;;0.50;0.50;;;;;;;;;;5051037;28;20439;-65
2021/11/10 06:50:29;;;;;;;0.50;0.50;;;;;;;;;;5050358;28;20206;-65
2021/11/10 06:52:54;;;;;;;0.50;0.50;;;;;;;;;;5051126;28;20255;-65
2021/11/10 06:55:20;;;;;;;0.60;0.60;;;;;;;;;;5051657;28;20477;-65
2021/11/10 06:57:46;;;;;;;0.50;0.50;;;;;;;;;;5050768;28;20446;-65
2021/11/10 07:00:15;;;;;;;0.50;0.50;;;;;;;;;;5051021;28;20498;-65
2021/11/10 07:02:42;;;;;;;0.60;0.60;;;;;;;;;;5051313;28;20427;-65
2021/11/10 07:05:08;;;;;;;0.60;0.60;;;;;;;;;;5051628;28;20171;-65
2021/11/10 07:07:34;;;;;;;0.50;0.50;;;;;;;;;;5051715;28;20192;-65
2021/11/10 07:10:00;;;;;;;0.50;0.50;;;;;;;;;;5050509;28;20689;-65
2021/11/10 07:12:26;;;;;;;0.50;0.50;;;;;;;;;;5050513;28;20565;-65
2021/11/10 07:14:52;;;;;;;0.50;0.50;;;;;;;;;;5051364;28;20693;-65
2021/11/10 07:17:18;;;;;;;0.50;0.50;;;;;;;;;;5051187;28;20906;-65
2021/11/10 07:19:44;;;;;;;0.60;0.60;;;;;;;;;;5050651;28;20285;-65
2021/11/10 07:22:10;;;;;;;0.50;0.50;;;;;;;;;;5051094;28;20712;-66
2021/11/10 07:24:36;;;;;;;0.50;0.50;;;;;;;;;;5051131;28;20180;-65
2021/11/10 07:27:02;;;;;;;0.50;0.50;;;;;;;;;;5051393;28;20432;-65
2021/11/10 07:29:29;;;;;;;0.50;0.50;;;;;;;;;;5051091;28;20188;-65
2021/11/10 07:31:55;;;;;;;0.50;0.50;;;;;;;;;;5050425;28;20259;-63
2021/11/10 07:34:21;;;;;;;0.40;0.40;;;;;;;;;;5048925;28;20185;-66
2021/11/10 07:36:47;;;;;;;0.57;0.57;;;;;;;;;;5050488;28;20169;-65
2021/11/10 07:39:13;;;;;;;0.50;0.50;;;;;;;;;;5049979;28;20467;-65
2021/11/10 07:41:39;;;;;;;0.40;0.40;;;;;;;;;;5050556;28;20564;-65
2021/11/10 07:44:10;;;;;;;0.50;0.50;;;;;;;;;;5050927;28;20222;-65
2021/11/10 07:46:36;;;;;;;0.40;0.40;;;;;;;;;;5049769;28;20433;-65
2021/11/10 07:49:03;;;;;;;0.50;0.50;;;;;;;;;;5051255;28;20204;-65
2021/11/10 07:51:29;;;;;;;0.50;0.50;;;;;;;;;;5051086;28;20181;-66
2021/11/10 07:53:55;;;;;;;0.50;0.50;;;;;;;;;;5050623;28;20423;-67
2021/11/10 07:56:22;;;;;;;0.50;0.50;;;;;;;;;;5051232;28;20251;-67
2021/11/10 07:58:48;;;;;;;0.50;0.50;;;;;;;;;;5051021;28;20254;-66
2021/11/10 08:01:14;;;;;;;0.50;0.50;;;;;;;;;;5050285;28;20177;-67
2021/11/10 08:03:41;;;;;;;0.50;0.50;;;;;;;;;;5049887;28;20419;-66
2021/11/10 08:06:07;;;;;;;0.50;0.50;;;;;;;;;;5050639;28;20175;-66
2021/11/10 08:08:33;;;;;;;0.40;0.40;;;;;;;;;;5051237;28;20246;-66
2021/11/10 08:11:00;;;;;;;0.50;0.50;;;;;;;;;;5050745;28;20181;-66
2021/11/10 08:13:27;;;;;;;0.50;0.50;;;;;;;;;;5050938;28;20533;-66
2021/11/10 08:15:53;;;;;;;0.50;0.50;;;;;;;;;;5050447;28;20178;-66
2021/11/10 08:18:19;;;;;;;0.50;0.50;;;;;;;;;;5050536;28;20231;-66
2021/11/10 08:20:46;;;;;;;0.40;0.40;;;;;;;;;;5050357;28;20181;-66
2021/11/10 08:23:20;;;;;;;0.50;0.50;;;;;;;;;;5050902;28;20256;-66
2021/11/10 08:25:46;;;;;;;0.50;0.50;;;;;;;;;;5055194;28;20255;-66
2021/11/10 08:28:12;;;;;;;0.50;0.50;;;;;;;;;;5053847;28;20193;-66
2021/11/10 08:30:38;;;;;;;0.50;0.50;;;;;;;;;;5052995;28;20207;-66
2021/11/10 08:33:04;;;;;;;0.50;0.50;;;;;;;;;;5054388;28;20405;-64
2021/11/10 08:35:30;;;;;;;0.50;0.50;;;;;;;;;;5054217;28;20178;-66
2021/11/10 08:37:57;;;;;;;0.50;0.50;;;;;;;;;;5053697;28;20242;-64
2021/11/10 08:40:23;;;;;;;0.50;0.50;;;;;;;;;;5052581;28;20211;-64
2021/11/10 08:42:49;;;;;;;0.50;0.50;;;;;;;;;;5052791;28;20221;-64
2021/11/10 08:45:18;;;;;;;0.40;0.40;;;;;;;;;;5054059;28;20177;-64
2021/11/10 08:47:45;;;;;;;0.50;0.50;;;;;;;;;;5053758;28;20289;-64
2021/11/10 08:50:12;;;;;;;0.50;0.50;;;;;;;;;;5053103;28;20674;-64
2021/11/10 08:52:38;;;;;;;0.47;0.47;;;;;;;;;;5053847;28;20182;-64
2021/11/10 08:55:06;;;;;;;0.40;0.40;;;;;;;;;;5053673;28;20172;-64
2021/11/10 08:57:33;;;;;;;0.50;0.50;;;;;;;;;;5053796;28;20198;-64
2021/11/10 08:59:59;;;;;;;0.60;0.60;;;;;;;;;;5053509;28;20340;-64
2021/11/10 09:02:25;;;;;;;0.55;0.55;;;;;;;;;;5053287;28;20228;-65
2021/11/10 09:04:51;;;;;;;0.50;0.50;;;;;;;;;;5053634;28;20647;-64
2021/11/10 09:07:17;;;;;;;0.40;0.40;;;;;;;;;;5053582;28;20398;-65
2021/11/10 09:09:43;;;;;;;0.50;0.50;;;;;;;;;;5053704;28;20844;-64
2021/11/10 09:12:09;;;;;;;0.50;0.50;;;;;;;;;;5052963;28;20185;-65
2021/11/10 09:14:35;;;;;;;0.40;0.40;;;;;;;;;;5053667;28;20229;-65
2021/11/10 09:17:02;;;;;;;0.40;0.40;;;;;;;;;;5053441;28;20175;-65
2021/11/10 09:19:28;;;;;;;0.50;0.50;;;;;;;;;;5053087;28;20671;-65
2021/11/10 09:21:54;;;;;;;0.50;0.50;;;;;;;;;;5053016;28;20229;-64
2021/11/10 09:24:20;;;;;;;0.50;0.50;;;;;;;;;;5053305;28;20500;-65
2021/11/10 09:26:47;;;;;;;0.40;0.40;;;;;;;;;;5053406;28;20256;-65
2021/11/10 09:29:16;;;;;;;0.50;0.50;;;;;;;;;;5053280;28;20425;-65
2021/11/10 09:31:42;;;;;;;0.47;0.47;;;;;;;;;;5053283;28;20231;-65
2021/11/10 09:34:11;;;;;;;0.60;0.60;;;;;;;;;;5052754;28;20272;-65
2021/11/10 09:36:39;;;;;;;0.40;0.40;;;;;;;;;;5052718;28;20573;-65
2021/11/10 09:39:06;;;;;;;0.50;0.50;;;;;;;;;;5052897;28;20272;-65
2021/11/10 09:41:32;;;;;;;0.40;0.40;;;;;;;;;;5052895;28;20179;-65
2021/11/10 09:43:58;;;;;;;0.50;0.50;;;;;;;;;;5052889;28;20176;-65
2021/11/10 09:46:24;;;;;;;0.40;0.40;;;;;;;;;;5052700;28;20650;-65
2021/11/10 09:48:52;;;;;;;0.50;0.50;;;;;;;;;;5052968;28;20195;-65
2021/11/10 09:51:18;;;;;;;0.50;0.50;;;;;;;;;;5052541;28;20605;-65
2021/11/10 09:53:44;;;;;;;0.50;0.50;;;;;;;;;;5052944;28;20178;-65
2021/11/10 09:56:10;;;;;;;0.50;0.50;;;;;;;;;;5052419;28;20409;-65
2021/11/10 09:58:37;;;;;;;0.50;0.50;;;;;;;;;;5052684;28;22322;-65
2021/11/10 10:01:05;;;;;;;0.50;0.50;;;;;;;;;;5052422;28;20410;-65
2021/11/10 10:03:31;;;;;;;0.50;0.50;;;;;;;;;;5052647;28;20171;-65
2021/11/10 10:05:57;;;;;;;0.40;0.40;;;;;;;;;;5052819;28;20635;-65
2021/11/10 10:08:23;;;;;;;0.47;0.47;;;;;;;;;;5052099;28;20192;-65
2021/11/10 10:10:50;;;;;;;0.50;0.50;;;;;;;;;;5052367;28;20172;-65
2021/11/10 10:13:17;;;;;;;0.45;0.45;;;;;;;;;;5051220;28;20275;-65
2021/11/10 10:15:45;;;;;;;0.40;0.40;;;;;;;;;;5052452;28;20680;-65
2021/11/10 10:18:18;;;;;;;0.40;0.40;;;;;;;;;;5051883;28;20563;-65
2021/11/10 10:20:45;;;;;;;0.50;0.50;;;;;;;;;;5052162;28;20222;-64
2021/11/10 10:23:13;;;;;;;0.50;0.50;;;;;;;;;;5052036;28;20172;-64
2021/11/10 10:25:49;;;;;;;0.40;0.40;;;;;;;;;;5052380;28;20390;-64
2021/11/10 10:28:17;;;;;;;0.40;0.40;;;;;;;;;;5052043;28;20196;-65
2021/11/10 10:30:45;;;;;;;0.40;0.40;;;;;;;;;;5051567;28;20172;-65
2021/11/10 10:33:12;;;;;;;0.40;0.40;;;;;;;;;;5052163;28;20179;-65
2021/11/10 10:35:38;;;;;;;0.50;0.50;;;;;;;;;;5050772;28;20651;-65
2021/11/10 10:38:05;;;;;;;0.40;0.40;;;;;;;;;;5051877;28;20291;-65
2021/11/10 10:40:32;;;;;;;0.40;0.40;;;;;;;;;;5050833;28;20473;-65
2021/11/10 10:42:58;;;;;;;0.40;0.40;;;;;;;;;;5051949;28;20183;-65
2021/11/10 10:45:27;;;;;;;0.52;0.52;;;;;;;;;;5051874;28;20520;-65
2021/11/10 10:48:00;;;;;;;0.40;0.40;;;;;;;;;;5051660;28;20267;-65
2021/11/10 10:50:46;;;;;;;0.45;0.45;;;;;;;;;;5051604;28;20180;-65
2021/11/10 10:53:13;;;;;;;0.40;0.40;;;;;;;;;;5051688;28;20716;-65
2021/11/10 10:55:40;;;;;;;0.40;0.40;;;;;;;;;;5051842;28;20222;-65
2021/11/10 10:58:08;;;;;;;0.40;0.40;;;;;;;;;;5051695;28;20548;-65
2021/11/10 11:00:35;;;;;;;0.40;0.40;;;;;;;;;;5051459;28;20226;-65
2021/11/10 11:03:22;;;;;;;0.50;0.50;;;;;;;;;;5051255;28;20174;-65
2021/11/10 11:05:48;;;;;;;0.40;0.40;;;;;;;;;;5041720;28;20263;-65
2021/11/10 11:08:28;;;;;;;0.40;0.40;;;;;;;;;;5051515;28;20281;-65
2021/11/10 11:10:55;;;;;;;0.40;0.40;;;;;;;;;;5051413;28;20470;-65
2021/11/10 11:13:27;;;;;;;0.40;0.40;;;;;;;;;;5049991;28;20176;-65
2021/11/10 11:16:06;;;;;;;0.40;0.40;;;;;;;;;;5069709;28;20205;-64
2021/11/10 11:18:32;;;;;;;0.40;0.40;;;;;;;;;;5071832;28;20195;-66
2021/11/10 11:20:58;;;;;;;0.40;0.40;;;;;;;;;;5070264;28;20175;-65
2021/11/10 11:23:39;;;;;;;0.40;0.40;;;;;;;;;;5071808;28;20171;-65
2021/11/10 11:26:06;;;;;;;0.40;0.40;;;;;;;;;;5070014;28;20751;-66
2021/11/10 11:28:38;;;;;;;0.40;0.40;;;;;;;;;;5071154;28;20615;-66
2021/11/10 11:31:04;;;;;;;0.40;0.40;;;;;;;;;;5069946;28;20174;-66
2021/11/10 11:33:33;;;;;;;0.40;0.40;;;;;;;;;;5071222;28;20713;-66
2021/11/10 11:36:00;;;;;;;0.40;0.40;;;;;;;;;;5071035;28;20409;-66
2021/11/10 11:38:28;;;;;;;0.40;0.40;;;;;;;;;;5074214;22;20232;-64
2021/11/10 11:40:55;;;;;;;0.40;0.40;;;;;;;;;;5030729;28;20180;-65
2021/11/10 11:43:24;;;;;;;0.40;0.40;;;;;;;;;;5031402;28;20169;-66
2021/11/10 11:45:51;;;;;;;0.40;0.40;;;;;;;;;;5031392;28;20648;-67
2021/11/10 11:48:17;;;;;;;0.40;0.40;;;;;;;;;;5030696;28;20189;-66
2021/11/10 11:50:44;;;;;;;0.40;0.40;;;;;;;;;;5013418;28;20628;-67
2021/11/10 11:53:11;;;;;;;0.40;0.40;;;;;;;;;;5031349;28;20191;-65
2021/11/10 11:55:40;;;;;;;0.40;0.40;;;;;;;;;;5031290;28;20234;-66
2021/11/10 11:58:08;;;;;;;0.40;0.40;;;;;;;;;;5031444;28;20684;-67
2021/11/10 12:00:45;;;;;;;0.40;0.40;;;;;;;;;;5034345;28;20203;-66
2021/11/10 12:03:20;;;;;;;0.40;0.40;;;;;;;;;;5035087;28;20176;-65
2021/11/10 12:05:47;;;;;;;0.40;0.40;;;;;;;;;;5035083;28;20191;-67
2021/11/10 12:08:13;;;;;;;0.40;0.40;;;;;;;;;;5034474;28;20189;-67
2021/11/10 12:10:41;;;;;;;0.40;0.40;;;;;;;;;;5034119;28;20184;-67
2021/11/10 12:13:19;;;;;;;0.40;0.40;;;;;;;;;;5034923;28;20169;-66
2021/11/10 12:16:00;;;;;;;0.40;0.40;;;;;;;;;;5034893;28;20164;-65
2021/11/10 12:18:26;;;;;;;0.40;0.40;;;;;;;;;;5034707;28;20564;-67
2021/11/10 12:21:01;;;;;;;0.40;0.40;;;;;;;;;;5034059;28;20177;-67
2021/11/10 12:23:47;;;;;;;0.40;0.40;;;;;;;;;;5034667;28;20164;-67
2021/11/10 12:26:13;;;;;;;0.40;0.40;;;;;;;;;;5034657;28;20248;-65
2021/11/10 12:28:48;;;;;;;0.40;0.40;;;;;;;;;;5034521;28;20192;-66
2021/11/10 12:31:46;;;;;;;0.40;0.40;;;;;;;;;;5033886;28;20547;-68
2021/11/10 12:34:12;;;;;;;0.40;0.40;;;;;;;;;;4990756;28;20556;-66
2021/11/10 12:36:47;;;;;;;0.40;0.40;;;;;;;;;;5034481;28;20169;-67
2021/11/10 12:39:13;;;;;;;0.40;0.40;;;;;;;;;;5034144;28;20466;-66
2021/11/10 12:41:49;;;;;;;0.40;0.40;;;;;;;;;;5033936;28;20516;-66
2021/11/10 12:44:31;;;;;;;0.40;0.40;;;;;;;;;;5033691;28;20176;-66
2021/11/10 12:46:57;;;;;;;0.40;0.40;;;;;;;;;;5034144;28;20188;-66
2021/11/10 12:49:23;;;;;;;0.40;0.40;;;;;;;;;;5034150;28;20288;-67
2021/11/10 12:52:08;;;;;;;0.40;0.40;;;;;;;;;;5034005;28;20260;-66
2021/11/10 12:54:34;;;;;;;0.30;0.30;;;;;;;;;;5033602;28;20233;-64
2021/11/10 12:57:00;;;;;;;0.38;0.38;;;;;;;;;;5034088;28;20205;-67
2021/11/10 12:59:34;;;;;;;0.40;0.40;;;;;;;;;;5033834;28;20213;-66
2021/11/10 13:02:18;;;;;;;0.30;0.30;;;;;;;;;;5034702;28;20632;-64
2021/11/10 13:04:47;;;;;;;0.30;0.30;;;;;;;;;;5033631;28;20399;-66
2021/11/10 13:07:19;;;;;;;0.30;0.30;;;;;;;;;;5033499;28;20410;-66
2021/11/10 13:09:46;;;;;;;0.40;0.40;;;;;;;;;;5032805;28;20209;-66
2021/11/10 13:12:14;;;;;;;0.30;0.30;;;;;;;;;;5033650;28;20571;-67
2021/11/10 13:14:44;;;;;;;0.40;0.40;;;;;;;;;;5033787;28;20212;-66
2021/11/10 13:17:22;;;;;;;0.30;0.30;;;;;;;;;;5015335;28;20238;-66
2021/11/10 13:19:57;;;;;;;0.40;0.40;;;;;;;;;;5033420;28;20230;-67
2021/11/10 13:22:38;;;;;;;0.40;0.40;;;;;;;;;;5033366;28;20173;-65
2021/11/10 13:25:07;;;;;;;0.40;0.40;;;;;;;;;;5033631;28;20548;-66
2021/11/10 13:27:34;;;;;;;0.40;0.40;;;;;;;;;;5033188;28;20183;-66
2021/11/10 13:30:01;;;;;;;0.40;0.40;;;;;;;;;;5033225;28;20641;-67
2021/11/10 13:32:27;;;;;;;0.40;0.40;;;;;;;;;;5033494;28;20540;-66
2021/11/10 13:35:00;;;;;;;0.40;0.40;;;;;;;;;;5033435;28;20640;-66
2021/11/10 13:37:38;;;;;;;0.40;0.40;;;;;;;;;;5033060;28;20177;-65
2021/11/10 13:40:04;;;;;;;0.40;0.40;;;;;;;;;;5032451;28;20672;-65
2021/11/10 13:42:30;;;;;;;0.30;0.30;;;;;;;;;;5033102;28;20632;-65
2021/11/10 13:45:06;;;;;;;0.40;0.40;;;;;;;;;;5032979;28;20177;-66
2021/11/10 13:47:32;;;;;;;0.40;0.40;;;;;;;;;;5033207;28;20259;-66
2021/11/10 13:49:58;;;;;;;0.40;0.40;;;;;;;;;;5032755;28;20347;-66
2021/11/10 13:52:26;;;;;;;0.40;0.40;;;;;;;;;;5032687;28;20728;-65
2021/11/10 13:54:56;;;;;;;0.40;0.40;;;;;;;;;;5033017;28;20412;-65
2021/11/10 13:57:28;;;;;;;0.40;0.40;;;;;;;;;;5032970;28;20243;-67
2021/11/10 13:59:58;;;;;;;0.40;0.40;;;;;;;;;;5032781;28;20251;-66
2021/11/10 14:02:30;;;;;;;0.40;0.40;;;;;;;;;;5032215;28;20173;-66
2021/11/10 14:04:57;;;;;;;0.40;0.40;;;;;;;;;;5032723;28;20199;-66
2021/11/10 14:07:24;;;;;;;0.40;0.40;;;;;;;;;;5032891;28;20204;-66
2021/11/10 14:09:53;;;;;;;0.40;0.40;;;;;;;;;;5032324;28;20251;-67
2021/11/10 14:12:23;;;;;;;0.40;0.40;;;;;;;;;;5032146;28;20239;-66
2021/11/10 14:14:54;;;;;;;0.40;0.40;;;;;;;;;;5032422;28;20176;-66
2021/11/10 14:17:20;;;;;;;0.40;0.40;;;;;;;;;;5032493;28;20219;-66
2021/11/10 14:19:46;;;;;;;0.40;0.40;;;;;;;;;;5032294;28;20204;-67
2021/11/10 14:22:12;;;;;;;0.40;0.40;;;;;;;;;;5031900;28;20243;-67
2021/11/10 14:24:44;;;;;;;0.30;0.30;;;;;;;;;;5032680;28;20781;-66
2021/11/10 14:27:10;;;;;;;0.30;0.30;;;;;;;;;;5032750;28;20431;-66
2021/11/10 14:29:37;;;;;;;0.40;0.40;;;;;;;;;;5032526;28;20228;-67
2021/11/10 14:32:05;;;;;;;0.50;0.50;;;;;;;;;;5032420;28;20412;-66
2021/11/10 14:34:32;;;;;;;0.40;0.40;;;;;;;;;;5032344;28;20696;-66
2021/11/10 14:37:01;;;;;;;0.40;0.40;;;;;;;;;;5031948;28;20272;-65
2021/11/10 14:39:27;;;;;;;0.40;0.40;;;;;;;;;;5031868;28;20205;-66
2021/11/10 14:41:59;;;;;;;0.40;0.40;;;;;;;;;;5031604;28;20215;-68
2021/11/10 14:44:27;;;;;;;0.40;0.40;;;;;;;;;;5032136;28;20173;-66